Time;durP1;ratioP1;P1;durP2;ratioP2;P2;SDS_P1;SDS_P2;PMS_P1;PMS_P2;Temp;Humidity;BMP_temperature;BMP_pressure;BME280_temperature;BME280_humidity;BME280_pressure;Samples;Min_cycle;Max_cycle;Signal;HPM_P1;HPM_P2
2023/12/09 00:01:45;;;;;;;12.00;11.40;;;;;;;;;;5069526;28;20096;-65
2023/12/09 00:04:11;;;;;;;12.23;11.63;;;;;;;;;;5071072;28;20029;-64
2023/12/09 00:06:36;;;;;;;11.95;11.35;;;;;;;;;;5068869;28;20422;-65
2023/12/09 00:09:03;;;;;;;12.50;11.90;;;;;;;;;;5073414;28;20099;-65
2023/12/09 00:11:28;;;;;;;12.23;11.63;;;;;;;;;;5074026;28;20034;-65
2023/12/09 00:13:53;;;;;;;12.30;11.70;;;;;;;;;;5073034;28;20024;-64
2023/12/09 00:16:19;;;;;;;12.32;11.73;;;;;;;;;;5071319;28;20049;-64
2023/12/09 00:18:44;;;;;;;13.13;12.43;;;;;;;;;;5076410;28;20036;-64
2023/12/09 00:21:11;;;;;;;12.10;11.50;;;;;;;;;;5074664;28;20423;-65
2023/12/09 00:23:36;;;;;;;12.18;11.57;;;;;;;;;;5069185;28;20028;-65
2023/12/09 00:26:02;;;;;;;11.90;11.30;;;;;;;;;;5071472;28;20085;-64
2023/12/09 00:28:27;;;;;;;12.07;11.48;;;;;;;;;;5071400;28;20032;-64
2023/12/09 00:30:53;;;;;;;12.00;11.40;;;;;;;;;;5075112;28;20020;-64
2023/12/09 00:33:18;;;;;;;11.88;11.27;;;;;;;;;;5070324;28;20446;-65
2023/12/09 00:35:43;;;;;;;12.02;11.43;;;;;;;;;;5073044;28;20031;-64
2023/12/09 00:38:09;;;;;;;12.15;11.55;;;;;;;;;;5070188;28;20032;-64
2023/12/09 00:40:34;;;;;;;12.48;11.88;;;;;;;;;;5069133;28;20024;-63
2023/12/09 00:42:59;;;;;;;12.20;11.60;;;;;;;;;;5072323;28;20066;-63
2023/12/09 00:45:25;;;;;;;12.75;12.10;;;;;;;;;;5069802;28;20444;-64
2023/12/09 00:47:50;;;;;;;12.77;12.13;;;;;;;;;;5069648;28;20112;-64
2023/12/09 00:50:16;;;;;;;12.57;11.95;;;;;;;;;;5076449;28;20024;-64
2023/12/09 00:52:41;;;;;;;11.82;11.27;;;;;;;;;;5073215;28;20425;-64
2023/12/09 00:55:06;;;;;;;12.10;11.50;;;;;;;;;;5069230;28;20101;-65
2023/12/09 00:57:33;;;;;;;12.15;11.55;;;;;;;;;;5072003;28;20025;-64
2023/12/09 00:59:58;;;;;;;11.93;11.32;;;;;;;;;;5075935;28;20614;-64
2023/12/09 01:02:23;;;;;;;12.20;11.60;;;;;;;;;;5067658;28;20107;-65
2023/12/09 01:04:49;;;;;;;11.90;11.30;;;;;;;;;;5078875;28;20494;-64
2023/12/09 01:07:14;;;;;;;12.23;11.63;;;;;;;;;;5069044;28;20063;-67
2023/12/09 01:09:39;;;;;;;12.07;11.48;;;;;;;;;;5071801;28;20024;-64
2023/12/09 01:12:05;;;;;;;11.57;11.07;;;;;;;;;;5072021;28;20078;-64
2023/12/09 01:14:30;;;;;;;12.40;11.80;;;;;;;;;;5071886;28;20055;-64
2023/12/09 01:16:55;;;;;;;12.50;11.90;;;;;;;;;;5068865;28;20495;-64
2023/12/09 01:19:21;;;;;;;12.40;11.80;;;;;;;;;;5074841;28;20106;-65
2023/12/09 01:21:47;;;;;;;12.00;11.40;;;;;;;;;;5082484;28;20086;-66
2023/12/09 01:24:13;;;;;;;11.88;11.27;;;;;;;;;;5072080;28;20472;-65
2023/12/09 01:26:38;;;;;;;11.73;11.23;;;;;;;;;;5069878;28;20028;-65
2023/12/09 01:29:04;;;;;;;12.82;12.13;;;;;;;;;;5072403;28;20020;-64
2023/12/09 01:31:30;;;;;;;12.57;11.95;;;;;;;;;;5071184;28;20017;-65
2023/12/09 01:33:55;;;;;;;11.80;11.20;;;;;;;;;;5072568;28;20027;-66
2023/12/09 01:36:20;;;;;;;12.00;11.40;;;;;;;;;;5081039;28;20107;-65
2023/12/09 01:38:46;;;;;;;12.20;11.60;;;;;;;;;;5072210;28;20013;-64
2023/12/09 01:41:11;;;;;;;12.15;11.55;;;;;;;;;;5072454;28;20108;-64
2023/12/09 01:43:36;;;;;;;12.23;11.63;;;;;;;;;;5077614;28;20078;-65
2023/12/09 01:46:05;;;;;;;12.38;11.77;;;;;;;;;;5070471;28;20032;-64
2023/12/09 01:48:31;;;;;;;12.23;11.63;;;;;;;;;;5073617;28;20021;-64
2023/12/09 01:50:57;;;;;;;11.73;11.18;;;;;;;;;;5079185;28;20020;-64
2023/12/09 01:53:22;;;;;;;11.70;11.13;;;;;;;;;;5069257;28;20399;-65
2023/12/09 01:55:48;;;;;;;11.65;11.13;;;;;;;;;;5069532;28;20037;-64
2023/12/09 01:58:13;;;;;;;11.68;11.13;;;;;;;;;;5074648;28;20116;-64
2023/12/09 02:00:39;;;;;;;12.30;11.70;;;;;;;;;;5075952;28;20025;-65
2023/12/09 02:03:04;;;;;;;11.93;11.32;;;;;;;;;;5081016;28;20017;-65
2023/12/09 02:05:29;;;;;;;12.60;11.93;;;;;;;;;;5071771;28;20556;-64
2023/12/09 02:07:55;;;;;;;12.48;11.85;;;;;;;;;;5072701;28;20507;-64
2023/12/09 02:10:20;;;;;;;12.20;11.60;;;;;;;;;;5076584;28;20036;-64
2023/12/09 02:13:06;;;;;;;12.27;11.68;;;;;;;;;;5074124;28;20028;-65
2023/12/09 02:15:31;;;;;;;12.27;11.68;;;;;;;;;;5073869;28;20044;-65
2023/12/09 02:17:59;;;;;;;12.20;11.60;;;;;;;;;;5080651;28;20036;-64
2023/12/09 02:20:26;;;;;;;12.40;11.80;;;;;;;;;;5072752;28;20025;-64
2023/12/09 02:22:58;;;;;;;12.52;11.93;;;;;;;;;;5077290;28;20016;-65
2023/12/09 02:25:23;;;;;;;12.88;12.18;;;;;;;;;;5072175;28;20021;-65
2023/12/09 02:27:54;;;;;;;11.80;11.20;;;;;;;;;;5075821;28;20138;-63
2023/12/09 02:30:28;;;;;;;12.23;11.63;;;;;;;;;;5073916;28;20090;-65
2023/12/09 02:32:55;;;;;;;12.27;11.68;;;;;;;;;;5075521;28;20399;-65
2023/12/09 02:35:21;;;;;;;12.20;11.60;;;;;;;;;;5076340;28;20028;-65
2023/12/09 02:37:47;;;;;;;12.10;11.50;;;;;;;;;;5075445;28;20169;-65
2023/12/09 02:40:13;;;;;;;12.70;12.10;;;;;;;;;;5072483;28;20021;-64
2023/12/09 02:42:39;;;;;;;12.07;11.48;;;;;;;;;;5078414;28;20099;-66
2023/12/09 02:45:05;;;;;;;12.10;11.50;;;;;;;;;;5072289;28;20099;-64
2023/12/09 02:47:31;;;;;;;14.15;13.35;;;;;;;;;;5071624;28;20043;-65
2023/12/09 02:49:56;;;;;;;12.20;11.60;;;;;;;;;;5071966;28;20083;-65
2023/12/09 02:52:21;;;;;;;12.20;11.60;;;;;;;;;;5075830;28;20024;-64
2023/12/09 02:54:47;;;;;;;12.48;11.88;;;;;;;;;;5075045;28;20021;-64
2023/12/09 02:57:12;;;;;;;12.63;12.00;;;;;;;;;;5077051;28;20063;-63
2023/12/09 02:59:37;;;;;;;12.45;11.85;;;;;;;;;;5074364;28;20025;-64
2023/12/09 03:02:03;;;;;;;12.30;11.70;;;;;;;;;;5069612;28;20738;-64
2023/12/09 03:04:28;;;;;;;12.48;11.88;;;;;;;;;;5076626;28;20376;-64
2023/12/09 03:06:54;;;;;;;11.98;11.38;;;;;;;;;;5080348;28;20111;-65
2023/12/09 03:09:19;;;;;;;12.35;11.75;;;;;;;;;;5072430;28;20028;-65
2023/12/09 03:11:44;;;;;;;11.77;11.18;;;;;;;;;;5074451;28;20036;-65
2023/12/09 03:14:09;;;;;;;11.68;11.15;;;;;;;;;;5067570;28;20074;-64
2023/12/09 03:16:38;;;;;;;12.13;11.52;;;;;;;;;;5071582;28;20052;-65
2023/12/09 03:19:03;;;;;;;11.90;11.30;;;;;;;;;;5071301;28;20036;-65
2023/12/09 03:21:28;;;;;;;13.10;12.40;;;;;;;;;;5090168;28;20050;-64
2023/12/09 03:23:54;;;;;;;12.30;11.70;;;;;;;;;;5075921;28;20086;-65
2023/12/09 03:26:19;;;;;;;12.20;11.60;;;;;;;;;;5076703;28;20027;-65
2023/12/09 03:28:45;;;;;;;12.20;11.60;;;;;;;;;;5075389;28;20040;-65
2023/12/09 03:31:14;;;;;;;12.90;12.20;;;;;;;;;;5070439;28;20063;-64
2023/12/09 03:33:40;;;;;;;13.07;12.38;;;;;;;;;;5075190;28;20364;-65
2023/12/09 03:36:09;;;;;;;12.27;11.68;;;;;;;;;;5073786;28;20052;-65
2023/12/09 03:38:34;;;;;;;13.02;12.32;;;;;;;;;;5070162;28;20020;-64
2023/12/09 03:41:02;;;;;;;12.80;12.10;;;;;;;;;;5076949;28;20027;-65
2023/12/09 03:43:27;;;;;;;12.20;11.60;;;;;;;;;;5074618;28;20081;-64
2023/12/09 03:45:52;;;;;;;11.90;11.30;;;;;;;;;;5076518;28;20104;-64
2023/12/09 03:48:17;;;;;;;11.82;11.25;;;;;;;;;;5073301;28;20497;-65
2023/12/09 03:50:43;;;;;;;12.55;11.90;;;;;;;;;;5073327;28;20020;-65
2023/12/09 03:53:08;;;;;;;12.10;11.50;;;;;;;;;;5069908;28;20027;-65
2023/12/09 03:55:33;;;;;;;12.15;11.55;;;;;;;;;;5067153;28;20028;-65
2023/12/09 03:57:59;;;;;;;11.75;11.15;;;;;;;;;;5070934;28;20429;-65
2023/12/09 04:00:24;;;;;;;12.13;11.52;;;;;;;;;;5071509;28;20080;-63
2023/12/09 04:02:49;;;;;;;12.73;12.02;;;;;;;;;;5069656;28;20020;-65
2023/12/09 04:05:14;;;;;;;12.50;11.85;;;;;;;;;;5064792;28;20388;-65
2023/12/09 04:07:40;;;;;;;12.20;11.60;;;;;;;;;;5061747;28;20028;-65
2023/12/09 04:10:05;;;;;;;12.43;11.82;;;;;;;;;;5067262;28;20017;-65
2023/12/09 04:12:31;;;;;;;12.10;11.50;;;;;;;;;;5072971;28;20048;-65
2023/12/09 04:14:57;;;;;;;12.05;11.45;;;;;;;;;;5075557;28;20443;-65
2023/12/09 04:17:22;;;;;;;11.98;11.38;;;;;;;;;;5070519;28;20550;-66
2023/12/09 04:19:48;;;;;;;12.10;11.50;;;;;;;;;;5065075;28;20064;-63
2023/12/09 04:22:13;;;;;;;12.30;11.70;;;;;;;;;;5071947;28;20050;-63
2023/12/09 04:24:40;;;;;;;12.35;11.75;;;;;;;;;;5071557;28;20074;-63
2023/12/09 04:27:05;;;;;;;12.75;12.05;;;;;;;;;;5074275;28;20023;-64
2023/12/09 04:29:30;;;;;;;12.70;12.05;;;;;;;;;;5068348;28;20396;-64
2023/12/09 04:31:56;;;;;;;11.93;11.32;;;;;;;;;;5069288;28;20086;-65
2023/12/09 04:34:21;;;;;;;12.13;11.52;;;;;;;;;;5070788;28;20024;-64
2023/12/09 04:36:47;;;;;;;12.50;11.90;;;;;;;;;;5070171;28;20468;-65
2023/12/09 04:39:12;;;;;;;11.95;11.35;;;;;;;;;;5071287;28;20472;-64
2023/12/09 04:41:37;;;;;;;12.18;11.57;;;;;;;;;;5072989;28;20025;-64
2023/12/09 04:44:03;;;;;;;12.20;11.60;;;;;;;;;;5072136;28;20121;-64
2023/12/09 04:46:28;;;;;;;13.73;12.95;;;;;;;;;;5071626;28;20042;-64
2023/12/09 04:48:53;;;;;;;13.00;12.30;;;;;;;;;;5070916;28;20079;-64
2023/12/09 04:51:19;;;;;;;13.13;12.43;;;;;;;;;;5072892;28;20143;-64
2023/12/09 04:53:44;;;;;;;12.82;12.13;;;;;;;;;;5068937;28;20080;-64
2023/12/09 04:56:10;;;;;;;12.50;11.82;;;;;;;;;;5068040;28;20028;-64
2023/12/09 04:58:35;;;;;;;12.40;11.80;;;;;;;;;;5070976;28;20020;-65
2023/12/09 05:01:01;;;;;;;12.00;11.40;;;;;;;;;;5070164;28;20047;-66
2023/12/09 05:03:27;;;;;;;11.93;11.32;;;;;;;;;;5071755;28;20105;-65
2023/12/09 05:05:52;;;;;;;12.30;11.70;;;;;;;;;;5070959;28;20048;-66
2023/12/09 05:08:17;;;;;;;11.88;11.30;;;;;;;;;;5077869;28;20023;-65
2023/12/09 05:10:43;;;;;;;12.70;12.10;;;;;;;;;;5069940;28;20529;-64
2023/12/09 05:13:09;;;;;;;12.75;12.10;;;;;;;;;;5071835;28;20103;-65
2023/12/09 05:15:34;;;;;;;14.27;13.45;;;;;;;;;;5072087;28;20059;-66
2023/12/09 05:17:59;;;;;;;12.60;12.00;;;;;;;;;;5071939;28;20029;-65
2023/12/09 05:20:24;;;;;;;12.30;11.70;;;;;;;;;;5075341;28;20020;-64
2023/12/09 05:22:50;;;;;;;12.85;12.15;;;;;;;;;;5067391;28;20020;-65
2023/12/09 05:25:15;;;;;;;13.10;12.40;;;;;;;;;;5071632;28;20485;-64
2023/12/09 05:27:40;;;;;;;12.50;11.90;;;;;;;;;;5070713;28;20113;-64
2023/12/09 05:30:06;;;;;;;12.20;11.63;;;;;;;;;;5071306;28;20055;-64
2023/12/09 05:32:31;;;;;;;12.13;11.52;;;;;;;;;;5072807;28;20028;-64
2023/12/09 05:34:57;;;;;;;12.38;11.77;;;;;;;;;;5079439;28;20021;-65
2023/12/09 05:37:22;;;;;;;11.77;11.27;;;;;;;;;;5080620;28;20480;-65
2023/12/09 05:39:47;;;;;;;12.55;11.88;;;;;;;;;;5075303;28;20016;-65
2023/12/09 05:42:13;;;;;;;12.23;11.63;;;;;;;;;;5074951;28;20060;-63
2023/12/09 05:44:39;;;;;;;12.80;12.10;;;;;;;;;;5077040;28;20028;-65
2023/12/09 05:47:04;;;;;;;12.80;12.10;;;;;;;;;;5076584;28;20024;-65
2023/12/09 05:49:30;;;;;;;12.88;12.18;;;;;;;;;;5077958;28;20052;-66
2023/12/09 05:51:55;;;;;;;12.45;11.82;;;;;;;;;;5079134;28;20020;-66
2023/12/09 05:54:20;;;;;;;12.20;11.60;;;;;;;;;;5075545;28;20023;-65
2023/12/09 05:56:47;;;;;;;12.85;12.15;;;;;;;;;;5068706;28;20059;-64
2023/12/09 05:59:13;;;;;;;12.10;11.50;;;;;;;;;;5072233;28;20032;-65
2023/12/09 06:01:38;;;;;;;14.55;13.65;;;;;;;;;;5071455;28;20028;-64
2023/12/09 06:04:04;;;;;;;13.43;12.73;;;;;;;;;;5073984;28;20028;-64
2023/12/09 06:06:29;;;;;;;12.60;12.00;;;;;;;;;;5073303;28;20074;-64
2023/12/09 06:08:54;;;;;;;12.75;12.07;;;;;;;;;;5081165;28;20094;-65
2023/12/09 06:11:20;;;;;;;13.55;12.82;;;;;;;;;;5073405;28;20365;-65
2023/12/09 06:13:46;;;;;;;12.13;11.52;;;;;;;;;;5072793;28;20016;-64
2023/12/09 06:16:16;;;;;;;12.60;12.00;;;;;;;;;;5076354;28;20064;-64
2023/12/09 06:18:41;;;;;;;12.32;11.73;;;;;;;;;;5073550;28;20021;-64
2023/12/09 06:21:07;;;;;;;12.27;11.68;;;;;;;;;;5076151;28;20365;-64
2023/12/09 06:23:32;;;;;;;11.95;11.35;;;;;;;;;;5068653;28;20016;-65
2023/12/09 06:25:57;;;;;;;12.55;11.95;;;;;;;;;;5070092;28;20024;-65
2023/12/09 06:28:22;;;;;;;12.25;11.65;;;;;;;;;;5072740;28;20016;-65
2023/12/09 06:30:48;;;;;;;12.50;11.90;;;;;;;;;;5073041;28;20503;-65
2023/12/09 06:33:13;;;;;;;12.10;11.50;;;;;;;;;;5069474;28;20392;-66
2023/12/09 06:35:38;;;;;;;13.13;12.43;;;;;;;;;;5070273;28;20064;-65
2023/12/09 06:38:04;;;;;;;12.80;12.10;;;;;;;;;;5075598;28;20034;-65
2023/12/09 06:40:29;;;;;;;13.73;12.93;;;;;;;;;;5074151;28;20033;-64
2023/12/09 06:42:54;;;;;;;13.25;12.55;;;;;;;;;;5072590;28;20033;-64
2023/12/09 06:45:19;;;;;;;12.90;12.20;;;;;;;;;;5066390;28;20055;-64
2023/12/09 06:47:45;;;;;;;12.93;12.23;;;;;;;;;;5068137;28;20036;-63
2023/12/09 06:50:11;;;;;;;13.00;12.30;;;;;;;;;;5071189;28;20398;-64
2023/12/09 06:52:36;;;;;;;13.00;12.30;;;;;;;;;;5070400;28;20032;-63
2023/12/09 06:55:03;;;;;;;12.43;11.80;;;;;;;;;;5070051;28;20020;-64
2023/12/09 06:57:28;;;;;;;13.73;12.93;;;;;;;;;;5075358;28;20029;-65
2023/12/09 06:59:53;;;;;;;12.00;11.40;;;;;;;;;;5075743;28;20041;-64
2023/12/09 07:02:19;;;;;;;13.15;12.43;;;;;;;;;;5070304;28;20112;-65
2023/12/09 07:04:44;;;;;;;12.60;11.90;;;;;;;;;;5068605;28;20131;-65
2023/12/09 07:07:09;;;;;;;14.70;13.80;;;;;;;;;;5073380;28;20016;-63
2023/12/09 07:09:35;;;;;;;11.63;11.02;;;;;;;;;;5073531;28;20597;-65
2023/12/09 07:12:00;;;;;;;12.55;11.85;;;;;;;;;;5067373;28;20024;-64
2023/12/09 07:14:25;;;;;;;13.18;12.45;;;;;;;;;;5069148;28;20037;-65
2023/12/09 07:16:51;;;;;;;14.82;13.93;;;;;;;;;;5067453;28;20052;-64
2023/12/09 07:19:16;;;;;;;13.95;13.15;;;;;;;;;;5071255;28;20507;-64
2023/12/09 07:21:41;;;;;;;12.98;12.27;;;;;;;;;;5074662;28;20024;-65
2023/12/09 07:24:07;;;;;;;12.90;12.20;;;;;;;;;;5073371;28;20024;-64
2023/12/09 07:26:32;;;;;;;13.50;12.70;;;;;;;;;;5069404;28;20032;-64
2023/12/09 07:28:57;;;;;;;12.32;11.73;;;;;;;;;;5071395;28;20544;-64
2023/12/09 07:31:23;;;;;;;12.77;12.07;;;;;;;;;;5069875;28;20044;-64
2023/12/09 07:33:48;;;;;;;12.77;12.07;;;;;;;;;;5074100;28;20024;-64
2023/12/09 07:36:13;;;;;;;13.07;12.38;;;;;;;;;;5070511;28;20391;-65
2023/12/09 07:38:39;;;;;;;12.30;11.70;;;;;;;;;;5079041;28;20031;-65
2023/12/09 07:41:04;;;;;;;13.77;13.02;;;;;;;;;;5071079;28;20025;-64
2023/12/09 07:43:31;;;;;;;11.50;11.00;;;;;;;;;;5073860;28;20486;-65
2023/12/09 07:45:56;;;;;;;12.40;11.80;;;;;;;;;;5071373;28;20017;-63
2023/12/09 07:48:21;;;;;;;12.52;11.90;;;;;;;;;;5077362;28;20032;-64
2023/12/09 07:50:46;;;;;;;12.77;12.07;;;;;;;;;;5071343;28;20048;-65
2023/12/09 07:53:12;;;;;;;12.32;11.70;;;;;;;;;;5071612;28;20115;-65
2023/12/09 07:55:37;;;;;;;12.45;11.80;;;;;;;;;;5072171;28;20135;-64
2023/12/09 07:58:02;;;;;;;11.48;10.93;;;;;;;;;;5072190;28;20028;-64
2023/12/09 08:00:28;;;;;;;11.90;11.30;;;;;;;;;;5077084;28;20886;-65
2023/12/09 08:02:54;;;;;;;13.05;12.35;;;;;;;;;;5071788;28;20024;-64
2023/12/09 08:05:21;;;;;;;12.27;11.68;;;;;;;;;;5073886;28;20078;-64
2023/12/09 08:07:46;;;;;;;12.13;11.52;;;;;;;;;;5068002;28;20043;-65
2023/12/09 08:10:12;;;;;;;12.38;11.77;;;;;;;;;;5076741;28;20087;-65
2023/12/09 08:12:37;;;;;;;12.27;11.68;;;;;;;;;;5072107;28;20132;-65
2023/12/09 08:15:03;;;;;;;12.05;11.45;;;;;;;;;;5069746;28;20066;-64
2023/12/09 08:17:28;;;;;;;12.18;11.57;;;;;;;;;;5066622;28;20104;-64
2023/12/09 08:19:54;;;;;;;12.60;11.90;;;;;;;;;;5077165;28;20111;-63
2023/12/09 08:22:19;;;;;;;13.25;12.55;;;;;;;;;;5070317;28;20019;-64
2023/12/09 08:24:44;;;;;;;12.82;12.13;;;;;;;;;;5070827;28;20024;-64
2023/12/09 08:27:10;;;;;;;12.35;11.75;;;;;;;;;;5069304;28;20016;-65
2023/12/09 08:29:35;;;;;;;12.65;11.95;;;;;;;;;;5074876;28;20140;-64
2023/12/09 08:32:01;;;;;;;13.23;12.50;;;;;;;;;;5062860;28;20482;-64
2023/12/09 08:34:26;;;;;;;12.07;11.48;;;;;;;;;;5078905;28;20032;-65
2023/12/09 08:36:51;;;;;;;11.95;11.35;;;;;;;;;;5077985;28;20890;-66
2023/12/09 08:39:17;;;;;;;12.15;11.52;;;;;;;;;;5072048;28;20028;-64
2023/12/09 08:41:43;;;;;;;12.00;11.40;;;;;;;;;;5071825;28;20054;-64
2023/12/09 08:44:08;;;;;;;12.32;11.70;;;;;;;;;;5067942;28;20108;-65
2023/12/09 08:46:33;;;;;;;12.65;11.95;;;;;;;;;;5067192;28;20027;-63
2023/12/09 08:48:59;;;;;;;13.35;12.60;;;;;;;;;;5058713;28;20013;-66
2023/12/09 08:51:24;;;;;;;12.60;11.90;;;;;;;;;;5063834;28;20030;-66
2023/12/09 08:53:50;;;;;;;13.00;12.30;;;;;;;;;;5064502;28;20038;-67
2023/12/09 08:56:15;;;;;;;13.20;12.50;;;;;;;;;;5061784;28;20024;-68
2023/12/09 08:58:40;;;;;;;12.90;12.20;;;;;;;;;;5067106;28;20020;-69
2023/12/09 09:01:06;;;;;;;12.20;11.60;;;;;;;;;;5059872;28;20029;-66
2023/12/09 09:03:31;;;;;;;12.95;12.25;;;;;;;;;;5065262;28;20486;-68
2023/12/09 09:05:57;;;;;;;12.63;11.93;;;;;;;;;;5066672;28;20100;-67
2023/12/09 09:08:22;;;;;;;11.30;10.80;;;;;;;;;;5063579;28;20041;-68
2023/12/09 09:10:48;;;;;;;11.70;11.10;;;;;;;;;;5062511;28;20042;-66
2023/12/09 09:13:14;;;;;;;13.05;12.35;;;;;;;;;;5062179;28;20131;-68
2023/12/09 09:15:39;;;;;;;12.70;12.00;;;;;;;;;;5059769;28;20174;-66
2023/12/09 09:18:04;;;;;;;12.52;11.82;;;;;;;;;;5058928;28;20094;-66
2023/12/09 09:20:30;;;;;;;13.05;12.35;;;;;;;;;;5065260;28;20052;-66
2023/12/09 09:22:55;;;;;;;12.80;12.10;;;;;;;;;;5062162;28;20111;-66
2023/12/09 09:25:20;;;;;;;12.43;11.82;;;;;;;;;;5067674;28;20020;-65
2023/12/09 09:27:47;;;;;;;12.70;12.00;;;;;;;;;;5065559;28;20395;-67
2023/12/09 09:30:13;;;;;;;12.32;11.73;;;;;;;;;;5066052;28;20024;-68
2023/12/09 09:32:38;;;;;;;12.77;12.07;;;;;;;;;;5066838;28;20038;-69
2023/12/09 09:35:04;;;;;;;12.10;11.50;;;;;;;;;;5068853;28;20040;-68
2023/12/09 09:37:29;;;;;;;12.68;11.98;;;;;;;;;;5063259;28;20170;-66
2023/12/09 09:39:54;;;;;;;12.50;11.90;;;;;;;;;;5064030;28;20119;-67
2023/12/09 09:42:25;;;;;;;12.98;12.27;;;;;;;;;;5063077;28;20023;-67
2023/12/09 09:45:00;;;;;;;12.68;11.98;;;;;;;;;;5063427;28;20031;-64
2023/12/09 09:47:26;;;;;;;12.10;11.50;;;;;;;;;;5062918;28;20073;-68
2023/12/09 09:49:53;;;;;;;13.52;12.77;;;;;;;;;;5063493;28;20028;-70
2023/12/09 09:52:20;;;;;;;12.60;11.95;;;;;;;;;;5064106;28;20625;-67
2023/12/09 09:54:45;;;;;;;11.85;11.25;;;;;;;;;;5065416;28;20029;-67
2023/12/09 09:57:11;;;;;;;13.18;12.48;;;;;;;;;;5061724;28;20035;-67
2023/12/09 09:59:37;;;;;;;12.80;12.10;;;;;;;;;;5062046;28;20036;-67
2023/12/09 10:02:03;;;;;;;13.23;12.52;;;;;;;;;;5056488;28;20313;-67
2023/12/09 10:04:29;;;;;;;13.15;12.45;;;;;;;;;;5062675;28;20502;-67
2023/12/09 10:06:55;;;;;;;13.52;12.82;;;;;;;;;;5063271;28;20013;-66
2023/12/09 10:09:20;;;;;;;13.00;12.30;;;;;;;;;;5059228;28;20008;-66
2023/12/09 10:11:45;;;;;;;12.02;11.43;;;;;;;;;;5060082;28;20027;-67
2023/12/09 10:14:11;;;;;;;12.02;11.43;;;;;;;;;;5063163;28;20041;-68
2023/12/09 10:16:36;;;;;;;12.75;12.05;;;;;;;;;;5075879;28;20131;-66
2023/12/09 10:19:01;;;;;;;13.85;13.05;;;;;;;;;;5066869;28;20476;-65
2023/12/09 10:21:26;;;;;;;14.70;13.80;;;;;;;;;;5058707;28;20028;-65
2023/12/09 10:23:52;;;;;;;13.75;12.95;;;;;;;;;;5067505;28;20032;-63
2023/12/09 10:26:17;;;;;;;13.07;12.38;;;;;;;;;;5066268;28;20025;-64
2023/12/09 10:28:44;;;;;;;13.40;12.63;;;;;;;;;;5063408;28;20433;-64
2023/12/09 10:31:09;;;;;;;12.60;11.90;;;;;;;;;;5061351;28;20028;-63
2023/12/09 10:33:35;;;;;;;15.45;14.45;;;;;;;;;;5062770;28;20537;-64
2023/12/09 10:36:01;;;;;;;12.50;11.80;;;;;;;;;;5059070;28;20025;-62
2023/12/09 10:38:26;;;;;;;13.50;12.75;;;;;;;;;;5067050;28;20065;-63
2023/12/09 10:40:55;;;;;;;12.32;11.73;;;;;;;;;;5064077;28;20348;-62
2023/12/09 10:43:20;;;;;;;12.13;11.52;;;;;;;;;;5066340;28;20052;-63
2023/12/09 10:45:47;;;;;;;12.88;12.18;;;;;;;;;;5069198;28;20052;-62
2023/12/09 10:48:12;;;;;;;12.30;11.70;;;;;;;;;;5064575;28;20033;-65
2023/12/09 10:50:38;;;;;;;12.65;11.95;;;;;;;;;;5067833;28;20031;-62
2023/12/09 10:53:04;;;;;;;12.57;11.88;;;;;;;;;;5059162;28;20090;-63
2023/12/09 10:55:29;;;;;;;13.30;12.57;;;;;;;;;;5066185;28;20036;-63
2023/12/09 10:57:55;;;;;;;13.35;12.65;;;;;;;;;;5063791;28;20538;-62
2023/12/09 11:00:21;;;;;;;12.73;12.02;;;;;;;;;;5067702;28;20480;-62
2023/12/09 11:02:47;;;;;;;12.75;12.05;;;;;;;;;;5069054;28;20107;-61
2023/12/09 11:05:12;;;;;;;12.43;11.77;;;;;;;;;;5067832;28;20036;-62
2023/12/09 11:07:39;;;;;;;11.85;11.25;;;;;;;;;;5065499;28;20369;-62
2023/12/09 11:10:06;;;;;;;13.07;12.38;;;;;;;;;;5067240;28;20115;-62
2023/12/09 11:12:32;;;;;;;12.63;11.93;;;;;;;;;;5068945;28;20055;-62
2023/12/09 11:15:12;;;;;;;12.15;11.55;;;;;;;;;;5064018;28;20095;-62
2023/12/09 11:17:38;;;;;;;11.88;11.27;;;;;;;;;;5068234;28;20103;-63
2023/12/09 11:20:06;;;;;;;12.73;12.05;;;;;;;;;;5067411;28;20100;-63
2023/12/09 11:22:36;;;;;;;15.35;14.35;;;;;;;;;;5060106;28;20044;-63
2023/12/09 11:25:03;;;;;;;12.85;12.15;;;;;;;;;;5060746;28;20618;-62
2023/12/09 11:27:28;;;;;;;12.25;11.65;;;;;;;;;;5066963;28;20032;-62
2023/12/09 11:29:53;;;;;;;12.73;12.02;;;;;;;;;;5065186;28;20071;-64
2023/12/09 11:32:19;;;;;;;12.52;11.93;;;;;;;;;;5065363;28;20028;-64
2023/12/09 11:34:44;;;;;;;13.27;12.57;;;;;;;;;;5059669;28;20096;-63
2023/12/09 11:37:11;;;;;;;13.45;12.70;;;;;;;;;;5067788;28;20031;-64
2023/12/09 11:39:38;;;;;;;13.27;12.57;;;;;;;;;;5069806;28;20066;-63
2023/12/09 11:42:03;;;;;;;13.32;12.63;;;;;;;;;;5065650;28;20024;-63
2023/12/09 11:44:29;;;;;;;13.13;12.43;;;;;;;;;;5064469;28;20037;-64
2023/12/09 11:46:54;;;;;;;14.98;14.07;;;;;;;;;;5061401;28;20028;-62
2023/12/09 11:49:20;;;;;;;12.68;12.00;;;;;;;;;;5069052;28;20028;-63
2023/12/09 11:51:46;;;;;;;12.27;11.68;;;;;;;;;;5068223;28;20070;-62
2023/12/09 11:54:11;;;;;;;13.30;12.55;;;;;;;;;;5063303;28;20028;-61
2023/12/09 11:56:37;;;;;;;11.93;11.32;;;;;;;;;;5062250;28;20043;-64
2023/12/09 11:59:05;;;;;;;12.20;11.60;;;;;;;;;;5061564;28;20032;-62
2023/12/09 12:01:31;;;;;;;12.27;11.68;;;;;;;;;;5065737;28;20549;-62
2023/12/09 12:03:57;;;;;;;13.80;13.00;;;;;;;;;;5062952;28;20400;-62
2023/12/09 12:06:23;;;;;;;13.25;12.55;;;;;;;;;;5060861;28;20017;-63
2023/12/09 12:08:49;;;;;;;13.15;12.45;;;;;;;;;;5064159;28;20102;-62
2023/12/09 12:11:15;;;;;;;13.23;12.52;;;;;;;;;;5067598;28;20029;-62
2023/12/09 12:13:40;;;;;;;13.05;12.35;;;;;;;;;;5063417;28;20018;-62
2023/12/09 12:16:06;;;;;;;11.95;11.35;;;;;;;;;;5063802;28;20393;-62
2023/12/09 12:18:32;;;;;;;15.55;14.55;;;;;;;;;;5062114;28;20020;-64
2023/12/09 12:20:58;;;;;;;13.18;12.48;;;;;;;;;;5065714;28;20028;-63
2023/12/09 12:23:23;;;;;;;13.45;12.65;;;;;;;;;;5066875;28;20380;-61
2023/12/09 12:25:50;;;;;;;13.55;12.75;;;;;;;;;;5065703;28;20055;-63
2023/12/09 12:28:16;;;;;;;12.90;12.20;;;;;;;;;;5065297;28;20112;-62
2023/12/09 12:30:41;;;;;;;12.90;12.20;;;;;;;;;;5062468;28;20495;-62
2023/12/09 12:33:07;;;;;;;12.95;12.25;;;;;;;;;;5067525;28;20020;-62
2023/12/09 12:35:32;;;;;;;13.82;13.02;;;;;;;;;;5072226;28;20052;-64
2023/12/09 12:37:59;;;;;;;14.23;13.38;;;;;;;;;;5066300;28;20094;-67
2023/12/09 12:40:26;;;;;;;12.70;12.00;;;;;;;;;;5056964;28;20033;-66
2023/12/09 12:42:51;;;;;;;13.40;12.65;;;;;;;;;;5063851;28;20025;-67
2023/12/09 12:45:17;;;;;;;13.27;12.57;;;;;;;;;;5064774;28;20026;-67
2023/12/09 12:47:43;;;;;;;13.30;12.60;;;;;;;;;;5067994;28;20040;-67
2023/12/09 12:50:09;;;;;;;13.05;12.35;;;;;;;;;;5067438;28;20024;-67
2023/12/09 12:52:34;;;;;;;12.70;12.00;;;;;;;;;;5067383;28;20024;-68
2023/12/09 12:55:00;;;;;;;12.20;11.60;;;;;;;;;;5062157;28;20024;-68
2023/12/09 12:57:25;;;;;;;13.10;12.40;;;;;;;;;;5065734;28;20033;-67
2023/12/09 12:59:51;;;;;;;12.75;12.05;;;;;;;;;;5067480;28;20009;-67
2023/12/09 13:02:16;;;;;;;12.93;12.23;;;;;;;;;;5054328;28;20021;-66
2023/12/09 13:04:41;;;;;;;12.65;11.95;;;;;;;;;;5065830;28;20050;-67
2023/12/09 13:07:07;;;;;;;12.77;12.07;;;;;;;;;;5062831;28;20484;-67
2023/12/09 13:09:32;;;;;;;12.93;12.23;;;;;;;;;;5061845;28;20050;-67
2023/12/09 13:11:57;;;;;;;13.68;12.88;;;;;;;;;;5059120;28;20063;-64
2023/12/09 13:14:23;;;;;;;12.15;11.55;;;;;;;;;;5056380;28;20082;-65
2023/12/09 13:16:48;;;;;;;15.10;14.13;;;;;;;;;;5061712;28;20049;-65
2023/12/09 13:19:16;;;;;;;12.27;11.68;;;;;;;;;;5060972;28;20020;-65
2023/12/09 13:21:41;;;;;;;13.10;12.40;;;;;;;;;;5067479;28;20032;-66
2023/12/09 13:24:07;;;;;;;12.02;11.43;;;;;;;;;;5064913;28;20020;-67
2023/12/09 13:26:32;;;;;;;12.45;11.80;;;;;;;;;;5063326;28;20025;-66
2023/12/09 13:28:57;;;;;;;12.40;11.77;;;;;;;;;;5064333;28;20020;-66
2023/12/09 13:31:23;;;;;;;13.40;12.68;;;;;;;;;;5067826;28;20321;-67
2023/12/09 13:33:48;;;;;;;13.65;12.85;;;;;;;;;;5066306;28;20028;-66
2023/12/09 13:36:16;;;;;;;14.07;13.25;;;;;;;;;;5061617;28;22305;-67
2023/12/09 13:38:42;;;;;;;13.63;12.82;;;;;;;;;;5054589;28;20017;-65
2023/12/09 13:41:07;;;;;;;13.02;12.32;;;;;;;;;;5058703;28;20477;-67
2023/12/09 13:43:33;;;;;;;12.75;12.05;;;;;;;;;;5069416;28;20056;-67
2023/12/09 13:45:58;;;;;;;13.15;12.45;;;;;;;;;;5062866;28;20111;-66
2023/12/09 13:48:23;;;;;;;14.77;13.88;;;;;;;;;;5068638;28;20062;-65
2023/12/09 13:50:49;;;;;;;15.35;14.35;;;;;;;;;;5067315;28;20025;-66
2023/12/09 13:53:14;;;;;;;13.85;13.05;;;;;;;;;;5065196;28;20074;-66
2023/12/09 13:55:40;;;;;;;12.18;11.57;;;;;;;;;;5065714;28;20024;-67
2023/12/09 13:58:05;;;;;;;13.48;12.70;;;;;;;;;;5071143;28;20040;-65
2023/12/09 14:00:31;;;;;;;13.07;12.38;;;;;;;;;;5059558;28;20027;-62
2023/12/09 14:02:57;;;;;;;12.98;12.27;;;;;;;;;;5074131;28;20112;-63
2023/12/09 14:05:22;;;;;;;13.98;13.15;;;;;;;;;;5065272;28;20052;-63
2023/12/09 14:07:47;;;;;;;12.95;12.25;;;;;;;;;;5069933;28;20332;-62